IBE0140 SBRF-LEMD
Flight info
| Callsign | IBE0140 |
|---|---|
| Flight time | N/A |
| Altitude | 34000 |
| Route | FNR B623 RAKUD UB623 CVS UN873 IPERA N873 GDV N858 VASTO UN858 PESAS N858 TLD |
| Aircraft | A21N/M-SADE1GHIJ1J4J7M3P2RWXY/EB1D1G1 |
Departure
| Time | 2026-05-04 15:16 |
|---|---|
| Airport | Recife/Guararapes - Gilberto Freyre International Airport (SBRF) |
Arrival
| Time | N/A |
|---|---|
| Airport | Adolfo Suárez Madrid–Barajas Airport (LEMD) |
| Time | Latitude | Longitude | Altitude | Speed | Heading |
|---|---|---|---|---|---|
| 2026-05-04 14:15 | -8.13005 | -34.91961 | 52 ft | 0 kts | 72° |
| 2026-05-04 15:05 | -8.13005 | -34.91962 | 51 ft | 2 kts | 72° |
| 2026-05-04 15:05 | -8.13013 | -34.91986 | 62 ft | 4 kts | 72° |
| 2026-05-04 15:06 | -8.13021 | -34.92009 | 48 ft | 4 kts | 69° |
| 2026-05-04 15:06 | -8.13034 | -34.92027 | 49 ft | 4 kts | 16° |
| 2026-05-04 15:06 | -8.13058 | -34.92026 | 53 ft | 3 kts | 342° |
| 2026-05-04 15:07 | -8.13066 | -34.92024 | 49 ft | 0 kts | 342° |
| 2026-05-04 15:10 | -8.13056 | -34.92027 | 52 ft | 6 kts | 342° |
| 2026-05-04 15:10 | -8.12975 | -34.92053 | 50 ft | 15 kts | 342° |
| 2026-05-04 15:10 | -8.12777 | -34.92119 | 53 ft | 15 kts | 342° |
| 2026-05-04 15:11 | -8.12676 | -34.92152 | 54 ft | 15 kts | 342° |
| 2026-05-04 15:11 | -8.12574 | -34.92185 | 53 ft | 15 kts | 342° |
| 2026-05-04 15:11 | -8.12471 | -34.92220 | 53 ft | 16 kts | 342° |
| 2026-05-04 15:11 | -8.12370 | -34.92253 | 53 ft | 16 kts | 342° |
| 2026-05-04 15:12 | -8.12266 | -34.92288 | 52 ft | 16 kts | 342° |
| 2026-05-04 15:12 | -8.12161 | -34.92322 | 49 ft | 16 kts | 342° |
| 2026-05-04 15:12 | -8.12056 | -34.92357 | 46 ft | 16 kts | 342° |
| 2026-05-04 15:12 | -8.11951 | -34.92392 | 46 ft | 16 kts | 342° |
| 2026-05-04 15:13 | -8.11845 | -34.92427 | 46 ft | 16 kts | 342° |
| 2026-05-04 15:13 | -8.11738 | -34.92462 | 46 ft | 16 kts | 342° |
| 2026-05-04 15:13 | -8.11632 | -34.92498 | 47 ft | 8 kts | 339° |
| 2026-05-04 15:13 | -8.11624 | -34.92502 | 48 ft | 5 kts | 333° |
| 2026-05-04 15:14 | -8.11589 | -34.92527 | 49 ft | 6 kts | 321° |
| 2026-05-04 15:14 | -8.11553 | -34.92557 | 50 ft | 7 kts | 320° |
| 2026-05-04 15:14 | -8.11516 | -34.92588 | 50 ft | 7 kts | 320° |
| 2026-05-04 15:14 | -8.11475 | -34.92623 | 50 ft | 8 kts | 319° |
| 2026-05-04 15:15 | -8.11447 | -34.92668 | 50 ft | 8 kts | 269° |
| 2026-05-04 15:15 | -8.11490 | -34.92694 | 50 ft | 8 kts | 168° |
| 2026-05-04 15:15 | -8.11550 | -34.92676 | 50 ft | 13 kts | 163° |
| 2026-05-04 15:16 | -8.12631 | -34.92316 | 55 ft | 140 kts | 161° |
| 2026-05-04 15:16 | -8.13662 | -34.91989 | 332 ft | 156 kts | 164° |
| 2026-05-04 15:16 | -8.15830 | -34.91319 | 1365 ft | 177 kts | 162° |
| 2026-05-04 15:17 | -8.17075 | -34.90910 | 1796 ft | 199 kts | 162° |
| 2026-05-04 15:17 | -8.19930 | -34.89975 | 2641 ft | 233 kts | 161° |
| 2026-05-04 15:17 | -8.21298 | -34.89033 | 3081 ft | 249 kts | 129° |
| 2026-05-04 15:18 | -8.21931 | -34.87381 | 3673 ft | 262 kts | 96° |
| 2026-05-04 15:18 | -8.21559 | -34.85562 | 4317 ft | 274 kts | 65° |
| 2026-05-04 15:18 | -8.20376 | -34.84024 | 4801 ft | 281 kts | 50° |
| 2026-05-04 15:19 | -8.17728 | -34.81125 | 5003 ft | 281 kts | 52° |
| 2026-05-04 15:19 | -8.16468 | -34.79658 | 5004 ft | 280 kts | 53° |
| 2026-05-04 15:19 | -8.13970 | -34.76644 | 4998 ft | 280 kts | 53° |
| 2026-05-04 15:20 | -8.12736 | -34.75133 | 4996 ft | 279 kts | 53° |
| 2026-05-04 15:20 | -8.11500 | -34.73615 | 4995 ft | 280 kts | 54° |
| 2026-05-04 15:20 | -8.10271 | -34.72094 | 5001 ft | 278 kts | 54° |
| 2026-05-04 15:20 | -8.09050 | -34.70581 | 4996 ft | 278 kts | 54° |
| 2026-05-04 15:21 | -8.07865 | -34.69047 | 5315 ft | 278 kts | 57° |
| 2026-05-04 15:21 | -8.06699 | -34.67473 | 5966 ft | 281 kts | 57° |
| 2026-05-04 15:21 | -8.04353 | -34.64318 | 7313 ft | 281 kts | 57° |
| 2026-05-04 15:22 | -8.03177 | -34.62739 | 7991 ft | 282 kts | 56° |
| 2026-05-04 15:22 | -8.01996 | -34.61158 | 8667 ft | 283 kts | 56° |
| 2026-05-04 15:22 | -7.99629 | -34.57991 | 10052 ft | 283 kts | 54° |
| 2026-05-04 15:23 | -7.98419 | -34.56367 | 10398 ft | 297 kts | 54° |
| 2026-05-04 15:23 | -7.97145 | -34.54656 | 10625 ft | 313 kts | 54° |
| 2026-05-04 15:23 | -7.95800 | -34.52858 | 10834 ft | 330 kts | 53° |
| 2026-05-04 15:23 | -7.94299 | -34.51035 | 11027 ft | 346 kts | 46° |
| 2026-05-04 15:24 | -7.90079 | -34.48314 | 11430 ft | 376 kts | 28° |
| 2026-05-04 15:24 | -7.85320 | -34.45935 | 12243 ft | 385 kts | 27° |
| 2026-05-04 15:25 | -7.82916 | -34.44721 | 12757 ft | 387 kts | 27° |
| 2026-05-04 15:25 | -7.80506 | -34.43495 | 13204 ft | 389 kts | 28° |
| 2026-05-04 15:25 | -7.78080 | -34.42254 | 13615 ft | 392 kts | 28° |
| 2026-05-04 15:26 | -7.73188 | -34.39751 | 14391 ft | 397 kts | 28° |
| 2026-05-04 15:26 | -7.70720 | -34.38486 | 14770 ft | 399 kts | 28° |
| 2026-05-04 15:26 | -7.65746 | -34.35934 | 15447 ft | 404 kts | 28° |
| 2026-05-04 15:27 | -7.63233 | -34.34647 | 15785 ft | 407 kts | 27° |
| 2026-05-04 15:27 | -7.58165 | -34.32049 | 16484 ft | 411 kts | 28° |
| 2026-05-04 15:28 | -7.53049 | -34.29431 | 17140 ft | 415 kts | 28° |
| 2026-05-04 15:28 | -7.50462 | -34.28111 | 17440 ft | 418 kts | 28° |
| 2026-05-04 15:28 | -7.45285 | -34.25464 | 18059 ft | 422 kts | 28° |
| 2026-05-04 15:29 | -7.42625 | -34.24103 | 18362 ft | 425 kts | 28° |
| 2026-05-04 15:30 | -7.31998 | -34.18675 | 19459 ft | 432 kts | 28° |
| 2026-05-04 15:30 | -7.23904 | -34.14544 | 20297 ft | 438 kts | 28° |
| 2026-05-04 15:31 | -7.18488 | -34.11777 | 20877 ft | 442 kts | 28° |
| 2026-05-04 15:31 | -7.15740 | -34.10377 | 21159 ft | 444 kts | 28° |
| 2026-05-04 15:32 | -7.07422 | -34.06130 | 22087 ft | 450 kts | 28° |
| 2026-05-04 15:32 | -7.01816 | -34.03265 | 22677 ft | 454 kts | 28° |
| 2026-05-04 15:33 | -6.96156 | -34.00381 | 23201 ft | 458 kts | 28° |
| 2026-05-04 15:34 | -6.87582 | -33.96004 | 23895 ft | 463 kts | 28° |
| 2026-05-04 15:34 | -6.84707 | -33.94541 | 24118 ft | 464 kts | 28° |
| 2026-05-04 15:34 | -6.78933 | -33.91594 | 24478 ft | 467 kts | 28° |
| 2026-05-04 15:35 | -6.73108 | -33.88619 | 24768 ft | 472 kts | 28° |
| 2026-05-04 15:35 | -6.70172 | -33.87121 | 24916 ft | 474 kts | 28° |
| 2026-05-04 15:35 | -6.67228 | -33.85618 | 25099 ft | 475 kts | 28° |
| 2026-05-04 15:36 | -6.61314 | -33.82610 | 25420 ft | 478 kts | 27° |
| 2026-05-04 15:36 | -6.58339 | -33.81105 | 25574 ft | 479 kts | 27° |
| 2026-05-04 15:36 | -6.55357 | -33.79594 | 25764 ft | 480 kts | 27° |
| 2026-05-04 15:37 | -6.52375 | -33.78081 | 25939 ft | 481 kts | 27° |
| 2026-05-04 15:37 | -6.49387 | -33.76558 | 26132 ft | 481 kts | 27° |
| 2026-05-04 15:37 | -6.46404 | -33.75038 | 26327 ft | 482 kts | 27° |
| 2026-05-04 15:37 | -6.43409 | -33.73515 | 26514 ft | 482 kts | 27° |
| 2026-05-04 15:38 | -6.40411 | -33.71993 | 26700 ft | 483 kts | 27° |
| 2026-05-04 15:38 | -6.37415 | -33.70467 | 26890 ft | 483 kts | 27° |
| 2026-05-04 15:38 | -6.34408 | -33.68938 | 27070 ft | 484 kts | 27° |
| 2026-05-04 15:38 | -6.31401 | -33.67407 | 27260 ft | 485 kts | 27° |
| 2026-05-04 15:39 | -6.28396 | -33.65875 | 27437 ft | 485 kts | 26° |
| 2026-05-04 15:39 | -6.26401 | -33.64860 | 27579 ft | 485 kts | 26° |
| 2026-05-04 15:39 | -6.20369 | -33.61799 | 27964 ft | 486 kts | 26° |
| 2026-05-04 15:40 | -6.16371 | -33.59769 | 28194 ft | 486 kts | 26° |
| 2026-05-04 15:40 | -6.13353 | -33.58234 | 28371 ft | 487 kts | 26° |
| 2026-05-04 15:40 | -6.11306 | -33.57192 | 28486 ft | 488 kts | 26° |
| 2026-05-04 15:40 | -6.08313 | -33.55673 | 28668 ft | 488 kts | 26° |
| 2026-05-04 15:41 | -6.05286 | -33.54133 | 28857 ft | 488 kts | 26° |
| 2026-05-04 15:41 | -6.02245 | -33.52588 | 29063 ft | 489 kts | 26° |
| 2026-05-04 15:41 | -5.99213 | -33.51048 | 29289 ft | 488 kts | 26° |
| 2026-05-04 15:41 | -5.96183 | -33.49509 | 29503 ft | 488 kts | 26° |
| 2026-05-04 15:42 | -5.93146 | -33.47967 | 29680 ft | 489 kts | 26° |
| 2026-05-04 15:42 | -5.90112 | -33.46429 | 29904 ft | 489 kts | 26° |
| 2026-05-04 15:42 | -5.87071 | -33.44883 | 29993 ft | 489 kts | 26° |
| 2026-05-04 15:43 | -5.81002 | -33.41802 | 29979 ft | 489 kts | 26° |
| 2026-05-04 15:43 | -5.74930 | -33.38720 | 29963 ft | 490 kts | 26° |
| 2026-05-04 15:44 | -5.68854 | -33.35638 | 29954 ft | 489 kts | 26° |
| 2026-05-04 15:44 | -5.62781 | -33.32551 | 29956 ft | 489 kts | 26° |
| 2026-05-04 15:45 | -5.56694 | -33.29471 | 29959 ft | 488 kts | 26° |
| 2026-05-04 15:45 | -5.50620 | -33.26392 | 29955 ft | 488 kts | 26° |
| 2026-05-04 15:46 | -5.44573 | -33.23328 | 29951 ft | 489 kts | 26° |
| 2026-05-04 15:46 | -5.38496 | -33.20250 | 29952 ft | 489 kts | 26° |
| 2026-05-04 15:47 | -5.32418 | -33.17169 | 29954 ft | 489 kts | 26° |
| 2026-05-04 15:47 | -5.26339 | -33.14086 | 29952 ft | 489 kts | 26° |
| 2026-05-04 15:48 | -5.20269 | -33.11011 | 29952 ft | 489 kts | 26° |
| 2026-05-04 15:48 | -5.11151 | -33.06399 | 29952 ft | 488 kts | 26° |
| 2026-05-04 15:49 | -5.05084 | -33.03327 | 29950 ft | 488 kts | 27° |
| 2026-05-04 15:49 | -4.99020 | -33.00259 | 29952 ft | 488 kts | 27° |
| 2026-05-04 15:50 | -4.92957 | -32.97193 | 29950 ft | 488 kts | 27° |
| 2026-05-04 15:50 | -4.86928 | -32.94116 | 29950 ft | 488 kts | 27° |
| 2026-05-04 15:51 | -4.80835 | -32.91003 | 29951 ft | 488 kts | 27° |
| 2026-05-04 15:51 | -4.74812 | -32.87952 | 29952 ft | 487 kts | 27° |
| 2026-05-04 15:52 | -4.68759 | -32.84889 | 29948 ft | 487 kts | 26° |
| 2026-05-04 15:52 | -4.62686 | -32.81850 | 29947 ft | 488 kts | 26° |
| 2026-05-04 15:53 | -4.56616 | -32.78806 | 29950 ft | 489 kts | 26° |
| 2026-05-04 15:53 | -4.50547 | -32.75755 | 29948 ft | 488 kts | 27° |
| 2026-05-04 15:54 | -4.44491 | -32.72695 | 29946 ft | 488 kts | 27° |
| 2026-05-04 15:54 | -4.38436 | -32.69630 | 29949 ft | 488 kts | 26° |
| 2026-05-04 15:55 | -4.32372 | -32.66572 | 29946 ft | 488 kts | 27° |
| 2026-05-04 15:55 | -4.26316 | -32.63518 | 29948 ft | 487 kts | 27° |
| 2026-05-04 15:56 | -4.20261 | -32.60460 | 29945 ft | 487 kts | 26° |
| 2026-05-04 15:56 | -4.14214 | -32.57405 | 29947 ft | 486 kts | 26° |
| 2026-05-04 15:57 | -4.08176 | -32.54338 | 29953 ft | 486 kts | 26° |
| 2026-05-04 15:57 | -4.02130 | -32.51285 | 29956 ft | 486 kts | 26° |
| 2026-05-04 15:58 | -3.96122 | -32.48255 | 29961 ft | 487 kts | 26° |
| 2026-05-04 15:58 | -3.90074 | -32.45203 | 29965 ft | 487 kts | 26° |
| 2026-05-04 15:59 | -3.84031 | -32.42116 | 29963 ft | 487 kts | 27° |
| 2026-05-04 15:59 | -3.78035 | -32.38953 | 29963 ft | 487 kts | 27° |
| 2026-05-04 16:00 | -3.72033 | -32.35793 | 29960 ft | 488 kts | 27° |
| 2026-05-04 16:00 | -3.66023 | -32.32630 | 29957 ft | 488 kts | 27° |
| 2026-05-04 16:01 | -3.60021 | -32.29458 | 29953 ft | 488 kts | 28° |
| 2026-05-04 16:01 | -3.54023 | -32.26292 | 29946 ft | 488 kts | 27° |
| 2026-05-04 16:02 | -3.48012 | -32.23120 | 29947 ft | 488 kts | 27° |
| 2026-05-04 16:03 | -3.39015 | -32.18375 | 29948 ft | 487 kts | 27° |
| 2026-05-04 16:03 | -3.33012 | -32.15209 | 29943 ft | 488 kts | 27° |
| 2026-05-04 16:04 | -3.27000 | -32.12084 | 29945 ft | 487 kts | 25° |
| 2026-05-04 16:04 | -3.17640 | -32.08073 | 29950 ft | 487 kts | 23° |
| 2026-05-04 16:05 | -3.11433 | -32.05443 | 29946 ft | 487 kts | 23° |
| 2026-05-04 16:06 | -3.02064 | -32.01458 | 29946 ft | 488 kts | 23° |
| 2026-05-04 16:07 | -2.89575 | -31.96147 | 29944 ft | 487 kts | 24° |
| 2026-05-04 16:08 | -2.77107 | -31.90855 | 29950 ft | 487 kts | 24° |
| 2026-05-04 16:09 | -2.61524 | -31.84242 | 29947 ft | 487 kts | 24° |
| 2026-05-04 16:10 | -2.49075 | -31.78956 | 29952 ft | 486 kts | 24° |
| 2026-05-04 16:11 | -2.36637 | -31.73678 | 29947 ft | 486 kts | 24° |
| 2026-05-04 16:12 | -2.18034 | -31.65784 | 29944 ft | 485 kts | 24° |
| 2026-05-04 16:13 | -2.05611 | -31.60508 | 29947 ft | 485 kts | 24° |
| 2026-05-04 16:14 | -1.93177 | -31.55243 | 29946 ft | 485 kts | 24° |
| 2026-05-04 16:16 | -1.77662 | -31.48662 | 29945 ft | 486 kts | 24° |
| 2026-05-04 16:17 | -1.62094 | -31.42059 | 29945 ft | 486 kts | 24° |
| 2026-05-04 16:18 | -1.52748 | -31.38085 | 30434 ft | 485 kts | 24° |
| 2026-05-04 16:18 | -1.49639 | -31.36767 | 30658 ft | 484 kts | 24° |
| 2026-05-04 16:19 | -1.40352 | -31.32835 | 31278 ft | 482 kts | 24° |
| 2026-05-04 16:19 | -1.34191 | -31.30225 | 31683 ft | 481 kts | 24° |
| 2026-05-04 16:20 | -1.24992 | -31.26331 | 31968 ft | 480 kts | 24° |
| 2026-05-04 16:20 | -1.18851 | -31.23733 | 31941 ft | 479 kts | 24° |
| 2026-05-04 16:22 | -1.03508 | -31.17227 | 31935 ft | 480 kts | 24° |
| 2026-05-04 16:23 | -0.85097 | -31.09427 | 31933 ft | 479 kts | 24° |
| 2026-05-04 16:25 | -0.66845 | -31.01295 | 31933 ft | 479 kts | 25° |
| 2026-05-04 16:26 | -0.45609 | -30.91778 | 31932 ft | 478 kts | 25° |
| 2026-05-04 16:28 | -0.31467 | -30.85440 | 31931 ft | 478 kts | 25° |
| 2026-05-04 16:29 | -0.09246 | -30.75486 | 31927 ft | 478 kts | 25° |
| 2026-05-04 16:31 | 0.04895 | -30.69137 | 31932 ft | 478 kts | 25° |
| 2026-05-04 16:32 | 0.23163 | -30.60952 | 31930 ft | 479 kts | 25° |
| 2026-05-04 16:33 | 0.35278 | -30.55525 | 31928 ft | 478 kts | 25° |
| 2026-05-04 16:34 | 0.44385 | -30.51443 | 31929 ft | 478 kts | 25° |
| 2026-05-04 16:35 | 0.62609 | -30.43287 | 31929 ft | 478 kts | 25° |
| 2026-05-04 16:36 | 0.71719 | -30.39214 | 31927 ft | 480 kts | 25° |
| 2026-05-04 16:37 | 0.80850 | -30.35103 | 31929 ft | 480 kts | 25° |
| 2026-05-04 16:38 | 0.92949 | -30.29685 | 31931 ft | 480 kts | 25° |
| 2026-05-04 16:39 | 1.08151 | -30.22882 | 31932 ft | 480 kts | 25° |
| 2026-05-04 16:40 | 1.20355 | -30.17416 | 31929 ft | 480 kts | 25° |
| 2026-05-04 16:41 | 1.26458 | -30.14680 | 32142 ft | 481 kts | 25° |
| 2026-05-04 16:41 | 1.35602 | -30.10579 | 32689 ft | 480 kts | 25° |
| 2026-05-04 16:42 | 1.44755 | -30.06465 | 33126 ft | 481 kts | 25° |
| 2026-05-04 16:43 | 1.50866 | -30.03723 | 33424 ft | 481 kts | 25° |
| 2026-05-04 16:43 | 1.56967 | -30.00990 | 33714 ft | 481 kts | 25° |
| 2026-05-04 16:43 | 1.60022 | -29.99618 | 33850 ft | 481 kts | 25° |
| 2026-05-04 16:45 | 1.78431 | -29.91352 | 33937 ft | 485 kts | 25° |
| 2026-05-04 16:46 | 1.93824 | -29.84443 | 33930 ft | 484 kts | 25° |
| 2026-05-04 16:47 | 2.06163 | -29.78899 | 33929 ft | 486 kts | 25° |
| 2026-05-04 16:48 | 2.18512 | -29.73352 | 33927 ft | 487 kts | 25° |
| 2026-05-04 16:49 | 2.30865 | -29.67801 | 33925 ft | 487 kts | 25° |
| 2026-05-04 16:50 | 2.43242 | -29.62243 | 33929 ft | 488 kts | 25° |
| 2026-05-04 16:51 | 2.52477 | -29.58091 | 33927 ft | 488 kts | 25° |
| 2026-05-04 16:52 | 2.64848 | -29.52530 | 33923 ft | 488 kts | 25° |
| 2026-05-04 16:53 | 2.74122 | -29.48358 | 33920 ft | 487 kts | 25° |
| 2026-05-04 16:54 | 2.86463 | -29.42791 | 33926 ft | 487 kts | 25° |
| 2026-05-04 16:55 | 3.04992 | -29.34458 | 33918 ft | 487 kts | 25° |
| 2026-05-04 16:56 | 3.20442 | -29.27524 | 33922 ft | 486 kts | 25° |
| 2026-05-04 16:57 | 3.29709 | -29.23352 | 33919 ft | 488 kts | 25° |
| 2026-05-04 16:58 | 3.42056 | -29.17784 | 33920 ft | 486 kts | 25° |
| 2026-05-04 17:00 | 3.60582 | -29.09450 | 33920 ft | 487 kts | 25° |
| 2026-05-04 17:01 | 3.75981 | -29.02501 | 33917 ft | 487 kts | 25° |
| 2026-05-04 17:02 | 3.88333 | -28.96938 | 33916 ft | 487 kts | 25° |
| 2026-05-04 17:03 | 3.97610 | -28.92761 | 33919 ft | 487 kts | 25° |
| 2026-05-04 17:03 | 4.06880 | -28.88573 | 33917 ft | 487 kts | 25° |
| 2026-05-04 17:04 | 4.19241 | -28.83005 | 33919 ft | 487 kts | 25° |
| 2026-05-04 17:05 | 4.31595 | -28.77431 | 33918 ft | 487 kts | 25° |
| 2026-05-04 17:06 | 4.40864 | -28.73274 | 33914 ft | 487 kts | 25° |
| 2026-05-04 17:07 | 4.49076 | -28.69566 | 33914 ft | 486 kts | 25° |
| 2026-05-04 17:07 | 4.56283 | -28.66302 | 33922 ft | 486 kts | 25° |
| 2026-05-04 17:08 | 4.65531 | -28.62119 | 33921 ft | 486 kts | 25° |
| 2026-05-04 17:09 | 4.71696 | -28.59334 | 33913 ft | 486 kts | 25° |
| 2026-05-04 17:09 | 4.77866 | -28.56546 | 33926 ft | 486 kts | 25° |
| 2026-05-04 17:10 | 4.93248 | -28.49590 | 33911 ft | 486 kts | 25° |
| 2026-05-04 17:11 | 4.99430 | -28.46799 | 33921 ft | 486 kts | 25° |
| 2026-05-04 17:12 | 5.08675 | -28.42623 | 33918 ft | 486 kts | 24° |
| 2026-05-04 17:13 | 5.24102 | -28.35639 | 33907 ft | 487 kts | 24° |
| 2026-05-04 17:14 | 5.36475 | -28.30065 | 33919 ft | 487 kts | 24° |
| 2026-05-04 17:15 | 5.45775 | -28.25851 | 33909 ft | 489 kts | 24° |
| 2026-05-04 17:16 | 5.58147 | -28.20252 | 33923 ft | 489 kts | 24° |
| 2026-05-04 17:17 | 5.70516 | -28.14646 | 33917 ft | 489 kts | 24° |
| 2026-05-04 17:18 | 5.81910 | -28.09478 | 33915 ft | 490 kts | 24° |
| 2026-05-04 17:19 | 5.94348 | -28.03838 | 33910 ft | 489 kts | 24° |
| 2026-05-04 17:20 | 6.06740 | -27.98218 | 33921 ft | 490 kts | 24° |
| 2026-05-04 17:20 | 6.16053 | -27.93987 | 33917 ft | 491 kts | 24° |
| 2026-05-04 17:21 | 6.28514 | -27.88314 | 33914 ft | 491 kts | 24° |
| 2026-05-04 17:22 | 6.34704 | -27.85496 | 33925 ft | 491 kts | 24° |
| 2026-05-04 17:23 | 6.47150 | -27.79841 | 33927 ft | 490 kts | 24° |
| 2026-05-04 17:24 | 6.56493 | -27.75609 | 33913 ft | 489 kts | 24° |
| 2026-05-04 17:25 | 6.68893 | -27.69966 | 33923 ft | 489 kts | 24° |
| 2026-05-04 17:26 | 6.81301 | -27.64322 | 33916 ft | 491 kts | 24° |
| 2026-05-04 17:27 | 6.96852 | -27.57237 | 33926 ft | 490 kts | 24° |
| 2026-05-04 17:28 | 7.09287 | -27.51570 | 33918 ft | 492 kts | 23° |
| 2026-05-04 17:29 | 7.28016 | -27.43031 | 33921 ft | 491 kts | 23° |
| 2026-05-04 17:31 | 7.43594 | -27.35920 | 33917 ft | 493 kts | 23° |
| 2026-05-04 17:32 | 7.59195 | -27.28759 | 33917 ft | 493 kts | 23° |
| 2026-05-04 17:33 | 7.71663 | -27.23053 | 33925 ft | 493 kts | 23° |
| 2026-05-04 17:34 | 7.84158 | -27.17335 | 33918 ft | 494 kts | 22° |
| 2026-05-04 17:35 | 7.99773 | -27.10192 | 33921 ft | 493 kts | 22° |
| 2026-05-04 17:36 | 8.06029 | -27.07321 | 33922 ft | 494 kts | 22° |
| 2026-05-04 17:36 | 8.12293 | -27.04447 | 33921 ft | 494 kts | 22° |
| 2026-05-04 17:37 | 8.18538 | -27.01603 | 33921 ft | 494 kts | 22° |
| 2026-05-04 17:37 | 8.24812 | -26.98727 | 33920 ft | 494 kts | 22° |
| 2026-05-04 17:38 | 8.31083 | -26.95827 | 33923 ft | 494 kts | 22° |
| 2026-05-04 17:38 | 8.37322 | -26.92969 | 33924 ft | 494 kts | 22° |
| 2026-05-04 17:39 | 8.46737 | -26.88653 | 33922 ft | 496 kts | 22° |
| 2026-05-04 17:39 | 8.52983 | -26.85770 | 33921 ft | 494 kts | 22° |
| 2026-05-04 17:40 | 8.58196 | -26.83374 | 33920 ft | 494 kts | 22° |